»·PEaware :: N132KT KSAN-92CA

N132KT :: KSAN-92CA

FLIGHT INFORMATION

Flight Status: Arrived
Operator: Privately registered:
United States
More flights under this callsign
Pilot: Keith S. (1)
Aircraft: BEECH AIRCRAFT BARON
(BE58)
More flights by this aircraft type
Origin: KSAN San Diego Intl-Lindbergh
United States
Destination: 92CA Westlake Farms
United States
More flights between these airports :: More routes between these airports
Route:
File this flight plan on PilotEdge
Remarks:
Altitude:
(Current/Filed)
8,500ft
Speed:
(Current/Filed)
165kts
Departed: 14-Jan-20 06:24 AM
Arrived: 14-Jan-20 08:04 AM
Distance/Time
Traveled:
243nm/1:39
Distance/Time
To Go:
Arrived

Flight Plot

Page will automatically refresh every two minutes.


Map Options




Map Legend


Flown Route
Filed Route
Departure Airport
Arrival Airport
Navaid (VOR, NDB)
Fix

Horizontal Profiles

Position Reports

Time Latitude Longitude Heading Altitude Ground
Speed
14-Jan-20 06:21 32.732510 -117.188609 33 17ft 0kts
14-Jan-20 06:22 32.732715 -117.188480 17 17ft 10kts
14-Jan-20 06:23 32.739614 -117.213747 291 388ft 134kts
14-Jan-20 06:24 32.759385 -117.252285 302 1606ft 141kts
14-Jan-20 06:25 32.790242 -117.275750 15 2195ft 160kts
14-Jan-20 06:26 32.834101 -117.270879 331 2794ft 145kts
14-Jan-20 06:27 32.866455 -117.294379 328 3760ft 132kts
14-Jan-20 06:28 32.897416 -117.317737 328 4612ft 131kts
14-Jan-20 06:29 32.928027 -117.341008 328 5437ft 131kts
14-Jan-20 06:30 32.957698 -117.365739 322 6199ft 132kts
14-Jan-20 06:31 32.987879 -117.388603 328 6984ft 127kts
14-Jan-20 06:32 33.017899 -117.411636 327 7565ft 128kts
14-Jan-20 06:33 33.047596 -117.434636 327 8144ft 126kts
14-Jan-20 06:34 33.076695 -117.457233 326 8696ft 124kts
14-Jan-20 06:35 33.108762 -117.482192 327 8682ft 145kts
14-Jan-20 06:36 33.143930 -117.509580 327 8506ft 150kts
14-Jan-20 06:37 33.178420 -117.536460 327 8530ft 146kts
14-Jan-20 06:39 33.212580 -117.563109 327 8534ft 146kts
14-Jan-20 06:40 33.246636 -117.589705 327 8534ft 146kts
14-Jan-20 06:41 33.280741 -117.616360 327 8534ft 146kts
14-Jan-20 06:42 33.314765 -117.642977 327 8567ft 149kts
14-Jan-20 06:43 33.350215 -117.670724 326 8569ft 157kts
14-Jan-20 06:44 33.387396 -117.699867 326 8560ft 160kts
14-Jan-20 06:45 33.424950 -117.729332 326 8538ft 161kts
14-Jan-20 06:46 33.462531 -117.758851 325 8539ft 161kts
14-Jan-20 06:47 33.500093 -117.788392 325 8543ft 161kts
14-Jan-20 06:48 33.537859 -117.818125 325 8544ft 162kts
14-Jan-20 06:49 33.575669 -117.847924 325 8544ft 162kts
14-Jan-20 06:50 33.613334 -117.877641 325 8544ft 162kts
14-Jan-20 06:51 33.651144 -117.907500 325 8543ft 162kts
14-Jan-20 06:52 33.686495 -117.940694 316 8555ft 161kts
14-Jan-20 06:53 33.718825 -117.978492 315 8546ft 161kts
14-Jan-20 06:54 33.750888 -118.016360 316 8542ft 161kts
14-Jan-20 06:55 33.783009 -118.053959 319 8537ft 161kts
14-Jan-20 06:56 33.817582 -118.088469 320 8540ft 161kts
14-Jan-20 06:57 33.852282 -118.122782 320 8539ft 161kts
14-Jan-20 06:58 33.887071 -118.157181 320 8539ft 161kts
14-Jan-20 06:59 33.921849 -118.191598 320 8540ft 161kts
14-Jan-20 06:59 33.950831 -118.220311 320 8541ft 161kts
14-Jan-20 07:01 33.991457 -118.260597 320 8542ft 161kts
14-Jan-20 07:01 34.020600 -118.289528 320 8540ft 161kts
14-Jan-20 07:03 34.061439 -118.330115 320 8535ft 162kts
14-Jan-20 07:04 34.096258 -118.364757 320 8533ft 161kts
14-Jan-20 07:04 34.124361 -118.392744 320 8538ft 162kts
14-Jan-20 07:06 34.165157 -118.433420 320 8538ft 162kts
14-Jan-20 07:06 34.194171 -118.462381 320 8534ft 162kts
14-Jan-20 07:08 34.236509 -118.500653 327 8546ft 162kts
14-Jan-20 07:08 34.268819 -118.524090 328 8531ft 163kts
14-Jan-20 07:09 34.307846 -118.552157 328 8534ft 162kts
14-Jan-20 07:10 34.346820 -118.580165 328 8534ft 162kts
14-Jan-20 07:11 34.385785 -118.608190 328 8535ft 162kts
14-Jan-20 07:12 34.424681 -118.636196 328 8536ft 162kts
14-Jan-20 07:13 34.463231 -118.663984 327 8540ft 162kts
14-Jan-20 07:14 34.502264 -118.692148 327 8541ft 162kts
14-Jan-20 07:15 34.541112 -118.720209 327 8542ft 162kts
14-Jan-20 07:16 34.580063 -118.748371 327 8543ft 162kts
14-Jan-20 07:17 34.618934 -118.776507 327 8549ft 162kts
14-Jan-20 07:18 34.657627 -118.804550 326 8559ft 161kts
14-Jan-20 07:19 34.696325 -118.832630 326 8563ft 161kts
14-Jan-20 07:20 34.735074 -118.860785 326 8566ft 161kts
14-Jan-20 07:21 34.773640 -118.888839 326 8569ft 161kts
14-Jan-20 07:22 34.812171 -118.916891 327 8578ft 160kts
14-Jan-20 07:23 34.850557 -118.944865 327 8592ft 160kts
14-Jan-20 07:24 34.888885 -118.972824 327 8612ft 160kts
14-Jan-20 07:25 34.927009 -119.000657 327 8616ft 158kts
14-Jan-20 07:26 34.964672 -119.028195 326 8619ft 156kts
14-Jan-20 07:27 35.001805 -119.055370 326 8624ft 155kts
14-Jan-20 07:28 35.038739 -119.082428 326 8623ft 153kts
14-Jan-20 07:29 35.075221 -119.109199 326 8620ft 152kts
14-Jan-20 07:30 35.111596 -119.135909 326 8630ft 152kts
14-Jan-20 07:31 35.148166 -119.162792 326 8628ft 153kts
14-Jan-20 07:32 35.184676 -119.189658 326 8626ft 153kts
14-Jan-20 07:33 35.221278 -119.216619 326 8626ft 153kts
14-Jan-20 07:34 35.257860 -119.243594 326 8626ft 153kts
14-Jan-20 07:35 35.294393 -119.270563 326 8626ft 153kts
14-Jan-20 07:36 35.331006 -119.297619 326 8625ft 153kts
14-Jan-20 07:37 35.367393 -119.324537 326 8625ft 153kts
14-Jan-20 07:38 35.403876 -119.351551 326 8631ft 152kts
14-Jan-20 07:39 35.440354 -119.378593 326 8638ft 152kts
14-Jan-20 07:40 35.476731 -119.405590 326 8644ft 152kts
14-Jan-20 07:41 35.512956 -119.432503 326 8649ft 152kts
14-Jan-20 07:42 35.549245 -119.459493 326 8649ft 152kts
14-Jan-20 07:43 35.585527 -119.486506 326 8651ft 152kts
14-Jan-20 07:44 35.621819 -119.513557 326 8651ft 152kts
14-Jan-20 07:45 35.657995 -119.540547 326 8650ft 152kts
14-Jan-20 07:46 35.694308 -119.567674 326 8650ft 152kts
14-Jan-20 07:47 35.730574 -119.594809 326 8650ft 151kts
14-Jan-20 07:48 35.766711 -119.621864 326 8649ft 151kts
14-Jan-20 07:49 35.802701 -119.648836 327 8648ft 151kts
14-Jan-20 07:50 35.838346 -119.675577 327 8651ft 151kts
14-Jan-20 07:51 35.874254 -119.702538 327 8653ft 151kts
14-Jan-20 07:52 35.910191 -119.729551 328 8651ft 150kts
14-Jan-20 07:53 35.945945 -119.756455 328 8651ft 150kts
14-Jan-20 07:54 35.981790 -119.783461 328 8651ft 150kts
14-Jan-20 07:55 36.017556 -119.810436 328 8650ft 150kts
14-Jan-20 07:56 36.053301 -119.837423 329 8650ft 150kts
14-Jan-20 07:57 36.088968 -119.864381 329 8649ft 150kts
14-Jan-20 07:58 36.124364 -119.891137 329 8659ft 151kts
14-Jan-20 07:59 36.160515 -119.917957 330 8656ft 151kts
14-Jan-20 08:00 36.197717 -119.944701 330 8793ft 147kts
14-Jan-20 08:01 36.185927 -119.913869 167 4476ft 221kts
14-Jan-20 08:02 36.132386 -119.893849 177 939ft 173kts
14-Jan-20 08:03 36.113975 -119.889264 156 193ft 0kts
14-Jan-20 08:04 36.113975 -119.889264 156 193ft 0kts

Navigation Log

Ident Type
Flight plan parsing failed, navigation log unavailable